sensor_id;sensor_type;location;lat;lon;timestamp;pressure;altitude;pressure_sealevel;temperature;humidity
48352;BME280;34163;49.314;6.752;2022-09-09T07:48:45;99192.19;;;9.73;100.00
48352;BME280;34163;49.314;6.752;2022-09-09T07:51:12;99194.84;;;9.73;100.00
48352;BME280;34163;49.314;6.752;2022-09-09T07:53:41;99185.91;;;9.75;100.00
48352;BME280;34163;49.314;6.752;2022-09-09T07:56:08;99188.34;;;9.80;100.00
48352;BME280;34163;49.314;6.752;2022-09-09T07:58:34;99187.53;;;9.78;100.00
48352;BME280;34163;49.314;6.752;2022-09-09T08:00:59;99194.53;;;9.79;100.00
48352;BME280;34163;49.314;6.752;2022-09-09T08:03:25;99191.13;;;9.77;100.00
48352;BME280;34163;49.314;6.752;2022-09-09T08:05:50;99190.09;;;9.79;100.00
48352;BME280;34163;49.314;6.752;2022-09-09T08:08:16;99191.97;;;9.77;100.00
48352;BME280;34163;49.314;6.752;2022-09-09T08:10:42;99196.41;;;9.77;100.00
48352;BME280;34163;49.314;6.752;2022-09-09T08:13:08;99204.84;;;9.85;100.00
48352;BME280;34163;49.314;6.752;2022-09-09T08:15:33;99191.91;;;9.79;100.00
48352;BME280;34163;49.314;6.752;2022-09-09T08:17:59;99195.47;;;9.78;100.00
48352;BME280;34163;49.314;6.752;2022-09-09T08:20:24;99191.47;;;10.06;100.00
48352;BME280;34163;49.314;6.752;2022-09-09T08:22:50;99186.88;;;10.27;100.00
48352;BME280;34163;49.314;6.752;2022-09-09T08:25:15;99182.88;;;11.36;100.00
48352;BME280;34163;49.314;6.752;2022-09-09T08:27:40;99187.34;;;10.86;100.00
48352;BME280;34163;49.314;6.752;2022-09-09T08:30:06;99186.78;;;10.11;100.00
48352;BME280;34163;49.314;6.752;2022-09-09T08:32:31;99197.34;;;9.76;100.00
48352;BME280;34163;49.314;6.752;2022-09-09T08:34:56;99189.50;;;9.55;100.00
48352;BME280;34163;49.314;6.752;2022-09-09T08:37:24;99205.66;;;9.49;100.00
48352;BME280;34163;49.314;6.752;2022-09-09T08:39:49;99198.69;;;9.48;100.00
48352;BME280;34163;49.314;6.752;2022-09-09T08:42:23;99186.53;;;9.44;100.00
48352;BME280;34163;49.314;6.752;2022-09-09T08:52:46;99189.53;;;9.36;100.00
48352;BME280;34163;49.314;6.752;2022-09-09T08:57:58;99201.97;;;9.34;100.00
48352;BME280;34163;49.314;6.752;2022-09-09T09:00:32;99190.69;;;9.31;100.00
48352;BME280;34163;49.314;6.752;2022-09-09T09:11:06;99201.69;;;9.21;100.00
48352;BME280;34163;49.314;6.752;2022-09-09T09:13:40;99197.84;;;9.29;100.00
48352;BME280;34163;49.314;6.752;2022-09-09T09:16:42;99182.41;;;9.19;100.00
48352;BME280;34163;49.314;6.752;2022-09-09T09:19:00;99180.81;;;9.15;100.00
48352;BME280;34163;49.314;6.752;2022-09-09T09:23:54;99180.25;;;9.27;100.00
48352;BME280;34163;49.314;6.752;2022-09-09T09:26:21;99181.38;;;9.22;100.00
48352;BME280;34163;49.314;6.752;2022-09-09T09:28:48;99173.47;;;9.22;100.00
48352;BME280;34163;49.314;6.752;2022-09-09T09:31:15;99179.69;;;9.21;100.00
48352;BME280;34163;49.314;6.752;2022-09-09T09:36:06;99165.81;;;9.16;100.00
48352;BME280;34163;49.314;6.752;2022-09-09T09:38:33;99163.16;;;9.16;100.00
48352;BME280;34163;49.314;6.752;2022-09-09T09:40:58;99148.81;;;9.21;100.00
48352;BME280;34163;49.314;6.752;2022-09-09T09:43:25;99147.69;;;9.27;100.00
48352;BME280;34163;49.314;6.752;2022-09-09T09:45:51;99150.63;;;9.21;100.00
48352;BME280;34163;49.314;6.752;2022-09-09T09:48:16;99148.69;;;9.24;100.00
48352;BME280;34163;49.314;6.752;2022-09-09T09:50:49;99159.31;;;9.23;100.00
48352;BME280;34163;49.314;6.752;2022-09-09T09:53:17;99174.41;;;9.21;100.00
48352;BME280;34163;49.314;6.752;2022-09-09T09:55:47;99189.84;;;9.11;100.00
48352;BME280;34163;49.314;6.752;2022-09-09T09:58:15;99199.25;;;9.17;100.00
48352;BME280;34163;49.314;6.752;2022-09-09T10:00:47;99209.25;;;9.10;100.00
48352;BME280;34163;49.314;6.752;2022-09-09T10:03:27;99217.53;;;9.02;100.00
48352;BME280;34163;49.314;6.752;2022-09-09T10:05:55;99207.19;;;9.17;100.00
48352;BME280;34163;49.314;6.752;2022-09-09T10:08:21;99195.69;;;8.99;100.00
48352;BME280;34163;49.314;6.752;2022-09-09T10:11:01;99204.63;;;9.15;100.00
48352;BME280;34163;49.314;6.752;2022-09-09T10:18:36;99176.03;;;9.04;100.00
48352;BME280;34163;49.314;6.752;2022-09-09T10:31:17;99184.78;;;9.06;100.00
48352;BME280;34163;49.314;6.752;2022-09-09T10:36:21;99173.59;;;9.00;100.00
48352;BME280;34163;49.314;6.752;2022-09-09T10:50:01;99160.03;;;9.07;100.00
48352;BME280;34163;49.314;6.752;2022-09-09T10:55:18;99154.88;;;9.04;100.00
48352;BME280;34163;49.314;6.752;2022-09-09T10:57:45;99158.13;;;9.11;100.00
48352;BME280;34163;49.314;6.752;2022-09-09T11:00:59;99152.25;;;9.04;100.00
48352;BME280;34163;49.314;6.752;2022-09-09T11:02:59;99164.25;;;9.12;100.00
48352;BME280;34163;49.314;6.752;2022-09-09T11:07:57;99167.97;;;9.07;100.00
48352;BME280;34163;49.314;6.752;2022-09-09T11:13:59;99153.13;;;9.05;100.00
48352;BME280;34163;49.314;6.752;2022-09-09T11:16:33;99142.41;;;9.08;100.00
48352;BME280;34163;49.314;6.752;2022-09-09T11:19:21;99143.47;;;9.04;100.00
48352;BME280;34163;49.314;6.752;2022-09-09T11:21:49;99138.97;;;9.06;100.00
48352;BME280;34163;49.314;6.752;2022-09-09T11:24:23;99140.19;;;8.99;100.00
48352;BME280;34163;49.314;6.752;2022-09-09T11:29:44;99125.69;;;9.07;100.00
48352;BME280;34163;49.314;6.752;2022-09-09T11:32:27;99118.41;;;9.13;100.00
48352;BME280;34163;49.314;6.752;2022-09-09T11:40:15;99122.03;;;9.10;100.00
48352;BME280;34163;49.314;6.752;2022-09-09T11:42:42;99119.84;;;9.01;100.00
48352;BME280;34163;49.314;6.752;2022-09-09T11:45:26;99117.91;;;9.04;100.00
48352;BME280;34163;49.314;6.752;2022-09-09T11:47:57;99116.06;;;9.06;100.00
48352;BME280;34163;49.314;6.752;2022-09-09T11:53:02;99117.34;;;8.98;100.00
48352;BME280;34163;49.314;6.752;2022-09-09T12:00:31;99121.91;;;9.13;100.00
48352;BME280;34163;49.314;6.752;2022-09-09T12:02:58;99127.34;;;9.10;100.00
48352;BME280;34163;49.314;6.752;2022-09-09T12:05:23;99126.56;;;9.08;100.00
48352;BME280;34163;49.314;6.752;2022-09-09T12:08:00;99126.63;;;9.06;100.00
48352;BME280;34163;49.314;6.752;2022-09-09T12:10:33;99124.91;;;9.05;100.00
48352;BME280;34163;49.314;6.752;2022-09-09T12:13:17;99145.97;;;9.07;100.00
48352;BME280;34163;49.314;6.752;2022-09-09T12:15:50;99158.63;;;9.00;100.00
48352;BME280;34163;49.314;6.752;2022-09-09T12:18:31;99160.56;;;8.97;100.00
48352;BME280;34163;49.314;6.752;2022-09-09T12:21:01;99161.34;;;8.99;100.00
48352;BME280;34163;49.314;6.752;2022-09-09T12:26:16;99161.75;;;8.89;100.00
48352;BME280;34163;49.314;6.752;2022-09-09T12:33:44;99162.38;;;8.95;100.00
48352;BME280;34163;49.314;6.752;2022-09-09T12:36:33;99161.69;;;8.91;100.00
48352;BME280;34163;49.314;6.752;2022-09-09T12:38:58;99160.69;;;8.94;100.00
48352;BME280;34163;49.314;6.752;2022-09-09T12:41:35;99156.81;;;9.01;100.00
48352;BME280;34163;49.314;6.752;2022-09-09T12:44:05;99153.41;;;8.99;100.00
48352;BME280;34163;49.314;6.752;2022-09-09T12:46:35;99151.97;;;8.91;100.00
48352;BME280;34163;49.314;6.752;2022-09-09T12:49:01;99148.41;;;8.93;100.00
48352;BME280;34163;49.314;6.752;2022-09-09T12:51:28;99144.78;;;8.95;100.00
48352;BME280;34163;49.314;6.752;2022-09-09T12:53:54;99130.69;;;8.95;100.00
48352;BME280;34163;49.314;6.752;2022-09-09T12:56:23;99130.53;;;8.98;100.00
48352;BME280;34163;49.314;6.752;2022-09-09T12:58:51;99125.13;;;9.01;100.00
48352;BME280;34163;49.314;6.752;2022-09-09T13:01:21;99123.84;;;8.90;100.00
48352;BME280;34163;49.314;6.752;2022-09-09T13:03:47;99121.63;;;9.00;100.00
48352;BME280;34163;49.314;6.752;2022-09-09T13:06:16;99111.97;;;8.99;100.00
48352;BME280;34163;49.314;6.752;2022-09-09T13:08:43;99115.97;;;9.08;100.00
48352;BME280;34163;49.314;6.752;2022-09-09T13:11:20;99122.41;;;9.02;100.00
48352;BME280;34163;49.314;6.752;2022-09-09T13:13:50;99118.97;;;9.00;100.00
48352;BME280;34163;49.314;6.752;2022-09-09T13:16:27;99117.03;;;9.04;100.00
48352;BME280;34163;49.314;6.752;2022-09-09T13:18:56;99107.47;;;9.01;100.00
48352;BME280;34163;49.314;6.752;2022-09-09T13:21:34;99114.41;;;9.04;100.00
48352;BME280;34163;49.314;6.752;2022-09-09T13:24:01;99113.06;;;8.95;100.00
48352;BME280;34163;49.314;6.752;2022-09-09T13:26:28;99100.19;;;9.06;100.00
48352;BME280;34163;49.314;6.752;2022-09-09T13:28:55;99092.19;;;9.08;100.00
48352;BME280;34163;49.314;6.752;2022-09-09T13:31:22;99100.69;;;8.96;100.00
48352;BME280;34163;49.314;6.752;2022-09-09T13:33:48;99091.69;;;9.00;100.00
48352;BME280;34163;49.314;6.752;2022-09-09T13:36:13;99097.56;;;9.06;100.00
48352;BME280;34163;49.314;6.752;2022-09-09T13:41:19;99095.06;;;9.03;100.00
48352;BME280;34163;49.314;6.752;2022-09-09T13:43:46;99098.97;;;8.95;100.00
48352;BME280;34163;49.314;6.752;2022-09-09T13:46:26;99106.19;;;8.91;100.00
48352;BME280;34163;49.314;6.752;2022-09-09T13:48:53;99099.13;;;8.91;100.00
48352;BME280;34163;49.314;6.752;2022-09-09T13:52:02;99106.56;;;8.83;100.00
48352;BME280;34163;49.314;6.752;2022-09-09T13:54:11;99094.56;;;8.95;100.00
48352;BME280;34163;49.314;6.752;2022-09-09T13:56:37;99088.41;;;8.95;100.00
48352;BME280;34163;49.314;6.752;2022-09-09T13:59:04;99097.72;;;8.84;100.00
48352;BME280;34163;49.314;6.752;2022-09-09T14:01:30;99075.13;;;8.96;100.00
48352;BME280;34163;49.314;6.752;2022-09-09T14:03:56;99080.84;;;8.87;100.00
48352;BME280;34163;49.314;6.752;2022-09-09T14:06:21;99074.84;;;8.83;100.00
48352;BME280;34163;49.314;6.752;2022-09-09T14:08:47;99070.72;;;8.78;100.00
48352;BME280;34163;49.314;6.752;2022-09-09T14:11:12;99076.72;;;8.81;100.00
48352;BME280;34163;49.314;6.752;2022-09-09T14:13:38;99070.66;;;8.79;100.00
48352;BME280;34163;49.314;6.752;2022-09-09T14:16:03;99071.94;;;8.89;100.00
48352;BME280;34163;49.314;6.752;2022-09-09T14:18:28;99075.94;;;8.79;100.00
48352;BME280;34163;49.314;6.752;2022-09-09T14:20:54;99082.91;;;8.80;100.00
48352;BME280;34163;49.314;6.752;2022-09-09T14:23:19;99083.41;;;8.88;100.00
48352;BME280;34163;49.314;6.752;2022-09-09T14:25:46;99092.44;;;8.84;100.00
48352;BME280;34163;49.314;6.752;2022-09-09T14:28:12;99104.41;;;8.91;100.00
48352;BME280;34163;49.314;6.752;2022-09-09T14:30:38;99088.19;;;8.80;100.00
48352;BME280;34163;49.314;6.752;2022-09-09T14:33:04;99096.13;;;8.80;100.00
48352;BME280;34163;49.314;6.752;2022-09-09T14:35:29;99082.13;;;8.78;100.00
48352;BME280;34163;49.314;6.752;2022-09-09T14:37:55;99087.50;;;8.77;100.00
48352;BME280;34163;49.314;6.752;2022-09-09T14:40:21;99080.84;;;8.68;100.00
48352;BME280;34163;49.314;6.752;2022-09-09T14:42:47;99089.63;;;8.68;100.00
48352;BME280;34163;49.314;6.752;2022-09-09T14:45:12;99087.97;;;8.66;100.00
48352;BME280;34163;49.314;6.752;2022-09-09T14:47:37;99093.53;;;8.60;100.00
48352;BME280;34163;49.314;6.752;2022-09-09T14:50:03;99102.97;;;8.65;100.00
48352;BME280;34163;49.314;6.752;2022-09-09T14:52:30;99111.25;;;8.58;100.00
48352;BME280;34163;49.314;6.752;2022-09-09T14:54:55;99123.34;;;8.63;100.00
48352;BME280;34163;49.314;6.752;2022-09-09T14:57:20;99136.75;;;8.59;100.00
48352;BME280;34163;49.314;6.752;2022-09-09T14:59:46;99137.53;;;8.61;100.00
48352;BME280;34163;49.314;6.752;2022-09-09T15:02:11;99152.97;;;8.70;100.00
48352;BME280;34163;49.314;6.752;2022-09-09T15:04:39;99156.06;;;8.59;100.00
48352;BME280;34163;49.314;6.752;2022-09-09T15:07:04;99145.97;;;8.48;100.00
48352;BME280;34163;49.314;6.752;2022-09-09T15:09:29;99148.50;;;8.51;100.00
48352;BME280;34163;49.314;6.752;2022-09-09T15:11:55;99146.56;;;8.55;100.00
48352;BME280;34163;49.314;6.752;2022-09-09T15:14:23;99129.50;;;8.43;100.00
48352;BME280;34163;49.314;6.752;2022-09-09T15:16:48;99133.03;;;8.42;100.00
48352;BME280;34163;49.314;6.752;2022-09-09T15:19:13;99134.88;;;8.40;100.00
48352;BME280;34163;49.314;6.752;2022-09-09T15:21:39;99139.38;;;8.38;100.00
48352;BME280;34163;49.314;6.752;2022-09-09T15:24:05;99139.31;;;8.40;100.00
48352;BME280;34163;49.314;6.752;2022-09-09T15:26:32;99135.63;;;8.44;100.00
48352;BME280;34163;49.314;6.752;2022-09-09T15:28:57;99139.16;;;8.44;100.00
48352;BME280;34163;49.314;6.752;2022-09-09T15:31:25;99133.31;;;8.36;100.00
48352;BME280;34163;49.314;6.752;2022-09-09T15:36:17;99136.94;;;8.33;100.00
48352;BME280;34163;49.314;6.752;2022-09-09T15:38:42;99141.00;;;8.41;100.00
48352;BME280;34163;49.314;6.752;2022-09-09T15:41:08;99136.75;;;8.38;100.00
48352;BME280;34163;49.314;6.752;2022-09-09T15:43:34;99138.59;;;8.36;100.00
48352;BME280;34163;49.314;6.752;2022-09-09T15:46:02;99129.88;;;8.34;100.00
48352;BME280;34163;49.314;6.752;2022-09-09T15:48:46;99142.34;;;8.30;100.00
48352;BME280;34163;49.314;6.752;2022-09-09T15:51:11;99135.84;;;8.37;100.00
48352;BME280;34163;49.314;6.752;2022-09-09T15:53:37;99143.13;;;8.32;100.00
48352;BME280;34163;49.314;6.752;2022-09-09T15:56:04;99146.41;;;8.37;100.00
48352;BME280;34163;49.314;6.752;2022-09-09T15:58:33;99144.78;;;8.35;100.00
48352;BME280;34163;49.314;6.752;2022-09-09T16:01:11;99147.69;;;8.29;100.00
48352;BME280;34163;49.314;6.752;2022-09-09T16:03:38;99152.13;;;8.28;100.00
48352;BME280;34163;49.314;6.752;2022-09-09T16:06:04;99145.84;;;8.31;100.00
48352;BME280;34163;49.314;6.752;2022-09-09T16:08:40;99146.22;;;8.22;100.00
48352;BME280;34163;49.314;6.752;2022-09-09T16:11:13;99151.13;;;8.31;100.00
48352;BME280;34163;49.314;6.752;2022-09-09T16:13:43;99147.69;;;8.29;100.00
48352;BME280;34163;49.314;6.752;2022-09-09T16:16:12;99149.63;;;8.25;100.00
48352;BME280;34163;49.314;6.752;2022-09-09T16:18:45;99157.59;;;8.24;100.00
48352;BME280;34163;49.314;6.752;2022-09-09T16:21:17;99144.66;;;8.17;100.00
48352;BME280;34163;49.314;6.752;2022-09-09T16:23:43;99154.31;;;8.18;100.00
48352;BME280;34163;49.314;6.752;2022-09-09T16:26:12;99157.94;;;8.16;100.00
48352;BME280;34163;49.314;6.752;2022-09-09T16:28:47;99170.94;;;8.21;100.00
48352;BME280;34163;49.314;6.752;2022-09-09T16:31:16;99168.22;;;8.22;100.00
48352;BME280;34163;49.314;6.752;2022-09-09T16:33:42;99167.16;;;8.26;100.00
48352;BME280;34163;49.314;6.752;2022-09-09T16:36:14;99165.78;;;8.17;100.00
48352;BME280;34163;49.314;6.752;2022-09-09T16:38:41;99163.84;;;8.21;100.00
48352;BME280;34163;49.314;6.752;2022-09-09T16:41:10;99158.50;;;8.23;100.00
48352;BME280;34163;49.314;6.752;2022-09-09T16:43:36;99157.72;;;8.21;100.00
48352;BME280;34163;49.314;6.752;2022-09-09T16:46:02;99154.97;;;8.24;100.00
48352;BME280;34163;49.314;6.752;2022-09-09T16:48:33;99155.09;;;8.21;100.00
48352;BME280;34163;49.314;6.752;2022-09-09T16:51:09;99153.88;;;8.28;100.00
48352;BME280;34163;49.314;6.752;2022-09-09T16:53:39;99160.09;;;8.27;100.00
48352;BME280;34163;49.314;6.752;2022-09-09T16:56:09;99165.19;;;8.31;100.00
48352;BME280;34163;49.314;6.752;2022-09-09T16:58:34;99170.53;;;8.30;100.00
48352;BME280;34163;49.314;6.752;2022-09-09T17:01:00;99174.09;;;8.29;100.00
48352;BME280;34163;49.314;6.752;2022-09-09T17:03:27;99168.94;;;8.26;100.00
48352;BME280;34163;49.314;6.752;2022-09-09T17:05:52;99180.63;;;8.20;100.00
48352;BME280;34163;49.314;6.752;2022-09-09T17:08:18;99173.56;;;8.21;100.00
48352;BME280;34163;49.314;6.752;2022-09-09T17:10:43;99184.78;;;8.26;100.00
48352;BME280;34163;49.314;6.752;2022-09-09T17:13:08;99183.06;;;8.25;100.00
48352;BME280;34163;49.314;6.752;2022-09-09T17:15:38;99188.88;;;8.33;100.00
48352;BME280;34163;49.314;6.752;2022-09-09T17:18:05;99186.38;;;8.30;100.00
48352;BME280;34163;49.314;6.752;2022-09-09T17:20:30;99195.06;;;8.32;100.00
48352;BME280;34163;49.314;6.752;2022-09-09T17:22:55;99201.47;;;8.26;100.00
48352;BME280;34163;49.314;6.752;2022-09-09T17:25:21;99215.47;;;8.28;100.00
48352;BME280;34163;49.314;6.752;2022-09-09T17:27:47;99211.94;;;8.28;100.00
48352;BME280;34163;49.314;6.752;2022-09-09T17:30:13;99213.63;;;8.30;100.00
48352;BME280;34163;49.314;6.752;2022-09-09T17:32:38;99224.50;;;8.23;100.00
48352;BME280;34163;49.314;6.752;2022-09-09T17:35:03;99225.03;;;8.31;100.00
48352;BME280;34163;49.314;6.752;2022-09-09T17:37:30;99231.19;;;8.31;100.00
48352;BME280;34163;49.314;6.752;2022-09-09T17:39:56;99230.56;;;8.25;100.00
48352;BME280;34163;49.314;6.752;2022-09-09T17:42:22;99235.84;;;8.25;100.00
48352;BME280;34163;49.314;6.752;2022-09-09T17:44:48;99239.41;;;8.24;100.00
48352;BME280;34163;49.314;6.752;2022-09-09T17:47:13;99241.88;;;8.28;100.00
48352;BME280;34163;49.314;6.752;2022-09-09T17:49:38;99247.28;;;8.25;100.00
48352;BME280;34163;49.314;6.752;2022-09-09T17:52:04;99255.00;;;8.30;100.00
48352;BME280;34163;49.314;6.752;2022-09-09T17:54:29;99264.44;;;8.35;100.00
48352;BME280;34163;49.314;6.752;2022-09-09T17:56:55;99253.28;;;8.29;100.00
48352;BME280;34163;49.314;6.752;2022-09-09T17:59:22;99252.75;;;8.21;100.00
48352;BME280;34163;49.314;6.752;2022-09-09T18:01:50;99260.84;;;8.16;100.00
48352;BME280;34163;49.314;6.752;2022-09-09T18:04:16;99258.16;;;8.17;100.00
48352;BME280;34163;49.314;6.752;2022-09-09T18:06:42;99264.28;;;8.18;100.00
48352;BME280;34163;49.314;6.752;2022-09-09T18:09:09;99260.78;;;8.17;100.00
48352;BME280;34163;49.314;6.752;2022-09-09T18:11:36;99257.06;;;8.22;100.00
48352;BME280;34163;49.314;6.752;2022-09-09T18:14:06;99262.50;;;8.18;100.00
48352;BME280;34163;49.314;6.752;2022-09-09T18:16:34;99263.22;;;8.22;100.00
48352;BME280;34163;49.314;6.752;2022-09-09T18:19:00;99255.84;;;8.30;100.00
48352;BME280;34163;49.314;6.752;2022-09-09T18:21:28;99263.97;;;8.26;100.00
48352;BME280;34163;49.314;6.752;2022-09-09T18:23:56;99264.81;;;8.26;100.00
48352;BME280;34163;49.314;6.752;2022-09-09T18:26:22;99263.22;;;8.22;100.00
48352;BME280;34163;49.314;6.752;2022-09-09T18:28:55;99267.78;;;8.18;100.00
48352;BME280;34163;49.314;6.752;2022-09-09T18:31:22;99270.22;;;8.23;100.00
48352;BME280;34163;49.314;6.752;2022-09-09T18:33:47;99271.16;;;8.22;100.00
48352;BME280;34163;49.314;6.752;2022-09-09T18:36:33;99279.97;;;8.21;100.00
48352;BME280;34163;49.314;6.752;2022-09-09T18:38:59;99277.84;;;8.09;100.00
48352;BME280;34163;49.314;6.752;2022-09-09T18:41:38;99281.84;;;8.19;100.00
48352;BME280;34163;49.314;6.752;2022-09-09T18:44:06;99286.50;;;8.12;100.00
48352;BME280;34163;49.314;6.752;2022-09-09T18:46:34;99285.56;;;8.13;100.00
48352;BME280;34163;49.314;6.752;2022-09-09T18:48:59;99287.97;;;8.19;100.00
48352;BME280;34163;49.314;6.752;2022-09-09T18:51:26;99288.97;;;8.17;100.00
48352;BME280;34163;49.314;6.752;2022-09-09T18:53:52;99291.03;;;8.09;100.00
48352;BME280;34163;49.314;6.752;2022-09-09T18:56:19;99286.63;;;8.09;100.00
48352;BME280;34163;49.314;6.752;2022-09-09T18:58:44;99288.50;;;8.06;100.00
48352;BME280;34163;49.314;6.752;2022-09-09T19:01:11;99291.84;;;8.11;100.00
48352;BME280;34163;49.314;6.752;2022-09-09T19:03:37;99297.97;;;8.11;100.00
48352;BME280;34163;49.314;6.752;2022-09-09T19:06:05;99294.72;;;8.05;100.00
48352;BME280;34163;49.314;6.752;2022-09-09T19:08:38;99289.28;;;8.09;100.00
48352;BME280;34163;49.314;6.752;2022-09-09T19:11:05;99300.50;;;8.14;100.00
48352;BME280;34163;49.314;6.752;2022-09-09T19:13:33;99301.41;;;8.13;100.00
48352;BME280;34163;49.314;6.752;2022-09-09T19:16:04;99305.78;;;8.14;100.00
48352;BME280;34163;49.314;6.752;2022-09-09T19:18:30;99303.25;;;8.11;100.00
48352;BME280;34163;49.314;6.752;2022-09-09T19:20:56;99298.94;;;8.09;100.00
48352;BME280;34163;49.314;6.752;2022-09-09T19:23:21;99308.66;;;8.08;100.00
48352;BME280;34163;49.314;6.752;2022-09-09T19:25:47;99297.28;;;10.96;100.00
48352;BME280;34163;49.314;6.752;2022-09-09T19:28:13;99298.81;;;8.97;100.00
48352;BME280;34163;49.314;6.752;2022-09-09T19:30:38;99311.81;;;8.61;100.00
48352;BME280;34163;49.314;6.752;2022-09-09T19:33:06;99305.47;;;8.44;100.00
48352;BME280;34163;49.314;6.752;2022-09-09T19:35:32;99305.22;;;8.28;100.00
48352;BME280;34163;49.314;6.752;2022-09-09T19:37:57;99307.84;;;8.28;100.00
48352;BME280;34163;49.314;6.752;2022-09-09T19:40:23;99307.03;;;8.26;100.00
48352;BME280;34163;49.314;6.752;2022-09-09T19:42:48;99297.72;;;8.17;100.00
48352;BME280;34163;49.314;6.752;2022-09-09T19:45:17;99306.06;;;8.07;100.00
48352;BME280;34163;49.314;6.752;2022-09-09T19:47:43;99309.50;;;8.09;100.00
48352;BME280;34163;49.314;6.752;2022-09-09T19:50:12;99308.66;;;8.08;100.00
48352;BME280;34163;49.314;6.752;2022-09-09T19:52:37;99310.38;;;8.09;100.00
48352;BME280;34163;49.314;6.752;2022-09-09T19:55:02;99312.13;;;8.09;100.00
48352;BME280;34163;49.314;6.752;2022-09-09T19:57:28;99307.88;;;8.06;100.00
48352;BME280;34163;49.314;6.752;2022-09-09T19:59:55;99314.06;;;8.05;100.00
48352;BME280;34163;49.314;6.752;2022-09-09T20:02:21;99314.06;;;8.05;100.00
48352;BME280;34163;49.314;6.752;2022-09-09T20:04:47;99316.13;;;7.97;100.00
48352;BME280;34163;49.314;6.752;2022-09-09T20:07:12;99310.69;;;8.02;100.00
48352;BME280;34163;49.314;6.752;2022-09-09T20:09:38;99311.59;;;8.00;100.00
48352;BME280;34163;49.314;6.752;2022-09-09T20:12:04;99312.53;;;7.99;100.00
48352;BME280;34163;49.314;6.752;2022-09-09T20:14:29;99310.69;;;8.02;100.00
48352;BME280;34163;49.314;6.752;2022-09-09T20:16:54;99315.53;;;7.90;100.00
48352;BME280;34163;49.314;6.752;2022-09-09T20:19:21;99318.09;;;7.92;100.00
48352;BME280;34163;49.314;6.752;2022-09-09T20:21:46;99312.16;;;7.87;100.00
48352;BME280;34163;49.314;6.752;2022-09-09T20:24:17;99314.69;;;7.90;100.00
48352;BME280;34163;49.314;6.752;2022-09-09T20:26:46;99312.94;;;7.89;100.00
48352;BME280;34163;49.314;6.752;2022-09-09T20:29:12;99318.34;;;7.86;100.00
48352;BME280;34163;49.314;6.752;2022-09-09T20:34:42;99310.66;;;7.79;100.00
48352;BME280;34163;49.314;6.752;2022-09-09T20:37:07;99313.31;;;7.79;100.00
48352;BME280;34163;49.314;6.752;2022-09-09T20:39:33;99314.09;;;7.81;100.00
48352;BME280;34163;49.314;6.752;2022-09-09T20:42:32;99311.47;;;7.81;100.00
48352;BME280;34163;49.314;6.752;2022-09-09T20:44:51;99299.22;;;7.80;100.00
48352;BME280;34163;49.314;6.752;2022-09-09T20:47:16;99301.56;;;7.88;100.00
48352;BME280;34163;49.314;6.752;2022-09-09T20:49:41;99298.38;;;7.78;100.00
48352;BME280;34163;49.314;6.752;2022-09-09T20:52:08;99305.41;;;7.79;100.00
48352;BME280;34163;49.314;6.752;2022-09-09T20:54:35;99293.41;;;12.16;100.00
48352;BME280;34163;49.314;6.752;2022-09-09T20:57:01;99291.16;;;9.31;100.00
48352;BME280;34163;49.314;6.752;2022-09-09T21:02:24;99288.44;;;8.29;100.00
48352;BME280;34163;49.314;6.752;2022-09-09T21:04:49;99290.66;;;8.18;100.00
48352;BME280;34163;49.314;6.752;2022-09-09T21:07:15;99297.38;;;8.05;100.00
48352;BME280;34163;49.314;6.752;2022-09-09T21:09:40;99296.66;;;8.01;100.00
48352;BME280;34163;49.314;6.752;2022-09-09T21:12:05;99307.31;;;7.98;100.00
48352;BME280;34163;49.314;6.752;2022-09-09T21:14:33;99303.75;;;7.99;100.00
48352;BME280;34163;49.314;6.752;2022-09-09T21:16:59;99317.03;;;7.96;100.00
48352;BME280;34163;49.314;6.752;2022-09-09T21:19:24;99315.53;;;7.90;100.00
48352;BME280;34163;49.314;6.752;2022-09-09T21:21:49;99314.81;;;7.87;100.00
48352;BME280;34163;49.314;6.752;2022-09-09T21:24:17;99322.66;;;7.88;100.00
48352;BME280;34163;49.314;6.752;2022-09-09T21:26:42;99321.53;;;7.94;100.00
48352;BME280;34163;49.314;6.752;2022-09-09T21:29:07;99318.97;;;7.92;100.00
48352;BME280;34163;49.314;6.752;2022-09-09T21:31:33;99317.50;;;7.85;100.00
48352;BME280;34163;49.314;6.752;2022-09-09T21:33:58;99323.50;;;7.89;100.00
48352;BME280;34163;49.314;6.752;2022-09-09T21:36:24;99313.06;;;7.86;100.00
48352;BME280;34163;49.314;6.752;2022-09-09T21:38:52;99318.59;;;7.79;100.00
48352;BME280;34163;49.314;6.752;2022-09-09T21:41:17;99326.31;;;7.84;100.00
48352;BME280;34163;49.314;6.752;2022-09-09T21:43:43;99324.75;;;7.78;100.00
48352;BME280;34163;49.314;6.752;2022-09-09T21:46:10;99329.97;;;7.80;100.00
48352;BME280;34163;49.314;6.752;2022-09-09T21:48:36;99332.78;;;7.75;100.00
48352;BME280;34163;49.314;6.752;2022-09-09T21:51:02;99339.56;;;7.82;100.00
48352;BME280;34163;49.314;6.752;2022-09-09T21:53:28;99337.03;;;7.79;100.00
48352;BME280;34163;49.314;6.752;2022-09-09T21:55:58;99336.53;;;7.70;100.00
48352;BME280;34163;49.314;6.752;2022-09-09T21:58:24;99335.44;;;7.75;100.00
48352;BME280;34163;49.314;6.752;2022-09-09T22:00:49;99337.94;;;7.78;100.00
48352;BME280;34163;49.314;6.752;2022-09-09T22:03:17;99340.59;;;7.78;100.00
48352;BME280;34163;49.314;6.752;2022-09-09T22:05:44;99337.16;;;7.76;100.00
48352;BME280;34163;49.314;6.752;2022-09-09T22:08:10;99346.34;;;7.66;100.00
48352;BME280;34163;49.314;6.752;2022-09-09T22:10:36;99339.91;;;7.73;100.00
48352;BME280;34163;49.314;6.752;2022-09-09T22:13:02;99342.72;;;7.69;100.00
48352;BME280;34163;49.314;6.752;2022-09-09T22:15:27;99342.84;;;7.66;100.00
48352;BME280;34163;49.314;6.752;2022-09-09T22:17:54;99346.28;;;7.68;100.00
48352;BME280;34163;49.314;6.752;2022-09-09T22:20:20;99333.97;;;7.68;100.00
48352;BME280;34163;49.314;6.752;2022-09-09T22:22:45;99340.25;;;7.64;100.00
48352;BME280;34163;49.314;6.752;2022-09-09T22:25:10;99342.22;;;7.59;100.00
48352;BME280;34163;49.314;6.752;2022-09-09T22:27:36;99342.09;;;7.62;100.00